Time;durP1;ratioP1;P1;durP2;ratioP2;P2;SDS_P1;SDS_P2;PMS_P1;PMS_P2;Temp;Humidity;BMP_temperature;BMP_pressure;BME280_temperature;BME280_humidity;BME280_pressure;Samples;Min_cycle;Max_cycle;Signal;HPM_P1;HPM_P2
2022/07/01 00:00:27;;;;;;;1.27;1.17;;;;;;;23.89;38.67;101179.56;5054153;28;20020;-68
2022/07/01 00:02:52;;;;;;;1.20;1.00;;;;;;;23.88;38.90;101177.91;5053637;28;20032;-68
2022/07/01 00:05:18;;;;;;;1.40;1.30;;;;;;;23.89;38.57;101176.81;5053724;28;20029;-68
2022/07/01 00:07:43;;;;;;;1.70;1.10;;;;;;;23.87;38.66;101176.22;5053697;28;20021;-68
2022/07/01 00:10:09;;;;;;;1.27;1.13;;;;;;;23.86;38.51;101174.59;5053989;28;20025;-68
2022/07/01 00:12:34;;;;;;;1.30;1.20;;;;;;;23.84;38.56;101169.41;5053984;28;20367;-68
2022/07/01 00:15:00;;;;;;;1.40;1.30;;;;;;;23.86;38.76;101171.88;5053541;28;20443;-68
2022/07/01 00:17:25;;;;;;;1.10;1.00;;;;;;;23.86;38.78;101177.34;5053880;28;20075;-68
2022/07/01 00:19:51;;;;;;;1.30;1.20;;;;;;;23.84;38.64;101176.78;5053832;28;20375;-68
2022/07/01 00:22:16;;;;;;;1.30;1.20;;;;;;;23.85;38.57;101172.94;5053851;28;20025;-68
2022/07/01 00:24:42;;;;;;;1.38;1.27;;;;;;;23.85;38.38;101183.88;5053409;28;20407;-68
2022/07/01 00:27:07;;;;;;;1.20;1.10;;;;;;;23.83;38.32;101180.56;5053734;28;20119;-68
2022/07/01 00:29:33;;;;;;;1.40;1.30;;;;;;;23.82;38.48;101174.31;5053652;28;20444;-68
2022/07/01 00:31:59;;;;;;;1.40;1.30;;;;;;;23.83;38.66;101175.13;5053403;28;20025;-69
2022/07/01 00:34:24;;;;;;;1.30;1.20;;;;;;;23.85;38.51;101178.41;5053544;28;20071;-69
2022/07/01 00:36:50;;;;;;;1.20;1.10;;;;;;;23.83;38.29;101175.13;5053555;28;20123;-69
2022/07/01 00:39:15;;;;;;;1.30;1.20;;;;;;;23.81;38.24;101181.63;5051992;28;20379;-69
2022/07/01 00:41:41;;;;;;;1.13;1.02;;;;;;;23.83;38.55;101181.38;5053495;28;20059;-69
2022/07/01 00:44:24;;;;;;;1.20;1.10;;;;;;;23.84;38.08;101182.22;5072098;28;20404;-69
2022/07/01 00:46:49;;;;;;;1.30;1.20;;;;;;;23.83;38.07;101180.56;5073131;28;20046;-70
2022/07/01 00:49:15;;;;;;;1.65;1.30;;;;;;;23.80;38.49;101174.53;5072122;28;20024;-69
2022/07/01 00:51:40;;;;;;;1.30;1.20;;;;;;;23.81;38.13;101178.91;5071839;28;20036;-69
2022/07/01 00:54:06;;;;;;;1.30;1.20;;;;;;;23.79;38.13;101175.59;5073360;28;20086;-69
2022/07/01 00:56:31;;;;;;;1.38;1.27;;;;;;;23.79;37.98;101181.06;5072071;28;20483;-69
2022/07/01 00:58:56;;;;;;;1.50;1.40;;;;;;;23.77;37.93;101175.03;5073293;28;20123;-69
2022/07/01 01:01:22;;;;;;;1.20;1.10;;;;;;;23.80;38.01;101185.44;5073343;28;20024;-69
2022/07/01 01:03:48;;;;;;;1.33;1.23;;;;;;;23.79;37.96;101186.50;5072942;28;20020;-69
2022/07/01 01:06:14;;;;;;;1.42;1.33;;;;;;;23.78;38.02;101186.75;5073228;28;20028;-69
2022/07/01 01:08:39;;;;;;;1.40;1.30;;;;;;;23.76;38.09;101181.56;5071980;28;20552;-69
2022/07/01 01:11:05;;;;;;;1.80;1.20;;;;;;;23.77;38.04;101183.22;5055135;28;20055;-69
2022/07/01 01:13:30;;;;;;;1.20;1.10;;;;;;;23.77;37.78;101183.22;5072490;28;20470;-69
2022/07/01 01:15:56;;;;;;;1.08;1.00;;;;;;;23.75;37.96;101179.94;5076255;28;20028;-69
2022/07/01 01:18:21;;;;;;;1.02;1.00;;;;;;;23.75;37.67;101185.38;5077215;28;20454;-69
2022/07/01 01:20:46;;;;;;;1.27;1.17;;;;;;;23.76;37.74;101187.00;5077201;28;20519;-69
2022/07/01 01:23:12;;;;;;;2.13;1.27;;;;;;;23.77;37.59;101187.84;5077432;28;20024;-69
2022/07/01 01:25:37;;;;;;;1.40;1.30;;;;;;;23.73;37.83;101176.63;5076715;28;20414;-69
2022/07/01 01:28:03;;;;;;;1.17;1.10;;;;;;;23.73;37.74;101184.81;5077020;28;20459;-69
2022/07/01 01:30:28;;;;;;;1.30;1.20;;;;;;;23.74;37.83;101172.81;5077149;28;20078;-69
2022/07/01 01:32:54;;;;;;;1.30;1.20;;;;;;;23.71;37.43;101184.22;5076954;28;20108;-69
2022/07/01 01:35:20;;;;;;;1.35;1.25;;;;;;;23.71;37.81;101178.78;5076589;28;20459;-69
2022/07/01 01:37:46;;;;;;;1.30;1.20;;;;;;;23.71;37.48;101177.97;5076695;28;20471;-69
2022/07/01 01:40:13;;;;;;;1.30;1.20;;;;;;;23.73;37.55;101181.25;5076950;28;20074;-69
2022/07/01 01:42:40;;;;;;;1.30;1.20;;;;;;;23.72;37.54;101177.69;5071559;28;20037;-69
2022/07/01 01:45:06;;;;;;;1.30;1.20;;;;;;;23.72;37.61;101185.88;5056460;28;20033;-70
2022/07/01 01:47:31;;;;;;;1.38;1.27;;;;;;;23.71;37.66;101184.22;5056397;28;20040;-69
2022/07/01 01:49:57;;;;;;;1.27;1.17;;;;;;;23.71;37.54;101178.78;5056683;28;20025;-69
2022/07/01 01:52:22;;;;;;;1.20;1.10;;;;;;;23.71;37.42;101178.78;5056713;28;20467;-68
2022/07/01 01:54:48;;;;;;;1.15;1.10;;;;;;;23.70;37.40;101184.47;5056518;28;20460;-68
2022/07/01 01:57:14;;;;;;;1.50;1.40;;;;;;;23.71;37.57;101184.22;5056208;28;20064;-68
2022/07/01 01:59:39;;;;;;;1.38;1.27;;;;;;;23.71;37.51;101180.69;5056151;28;20383;-68
2022/07/01 02:02:05;;;;;;;1.10;1.00;;;;;;;23.72;37.60;101193.25;5056456;28;20021;-68
2022/07/01 02:04:30;;;;;;;1.27;1.17;;;;;;;23.71;37.34;101189.69;5056099;28;20017;-68
2022/07/01 02:06:56;;;;;;;1.33;1.23;;;;;;;23.69;37.52;101186.41;5056030;28;20021;-68
2022/07/01 02:09:21;;;;;;;1.15;1.10;;;;;;;23.70;37.40;101190.78;5056362;28;20025;-68
2022/07/01 02:11:46;;;;;;;1.23;1.13;;;;;;;23.68;37.66;101179.31;5055960;28;20070;-68
2022/07/01 02:14:12;;;;;;;1.30;1.20;;;;;;;23.69;37.38;101180.94;5056113;28;20083;-68
2022/07/01 02:16:37;;;;;;;1.20;1.10;;;;;;;23.70;37.29;101184.47;5055892;28;20032;-68
2022/07/01 02:19:03;;;;;;;1.30;1.20;;;;;;;23.71;37.51;101180.69;5055806;28;20025;-68
2022/07/01 02:21:28;;;;;;;1.35;1.25;;;;;;;23.70;37.54;101182.59;5056138;28;20021;-68
2022/07/01 02:23:54;;;;;;;1.35;1.25;;;;;;;23.68;37.31;101175.72;5055775;28;20026;-68
2022/07/01 02:26:19;;;;;;;1.05;1.05;;;;;;;23.69;37.41;101186.41;5055734;28;20028;-68
2022/07/01 02:28:45;;;;;;;0.98;0.98;;;;;;;23.69;37.24;101189.13;5055968;28;20024;-68
2022/07/01 02:31:10;;;;;;;1.58;1.48;;;;;;;23.69;37.65;101191.03;5056240;28;20489;-68
2022/07/01 02:33:36;;;;;;;1.05;1.00;;;;;;;23.67;37.67;101193.19;5056285;28;20018;-68
2022/07/01 02:36:01;;;;;;;1.20;1.10;;;;;;;23.67;37.55;101194.03;5055306;28;20467;-68
2022/07/01 02:38:27;;;;;;;1.42;1.33;;;;;;;23.67;37.55;101185.84;5055815;28;20021;-68
2022/07/01 02:40:52;;;;;;;1.27;1.17;;;;;;;23.68;37.70;101183.91;5055430;28;20463;-68
2022/07/01 02:43:18;;;;;;;1.45;1.35;;;;;;;23.68;37.55;101194.84;5065174;28;20031;-68
2022/07/01 02:45:43;;;;;;;1.40;1.30;;;;;;;23.69;37.51;101199.22;5076366;28;20024;-68
2022/07/01 02:48:09;;;;;;;1.40;1.20;;;;;;;23.68;37.84;101190.22;5075620;28;20462;-68
2022/07/01 02:50:34;;;;;;;1.10;1.00;;;;;;;23.68;37.69;101195.69;5075248;28;20024;-68
2022/07/01 02:53:00;;;;;;;1.13;1.13;;;;;;;23.67;37.73;101194.03;5075444;28;20020;-68
2022/07/01 02:55:25;;;;;;;1.20;1.10;;;;;;;23.68;37.73;101195.69;5075358;28;20475;-68
2022/07/01 02:57:51;;;;;;;2.00;1.10;;;;;;;23.67;37.85;101199.47;5075294;28;20024;-68
2022/07/01 03:00:17;;;;;;;1.33;1.17;;;;;;;23.68;38.13;101205.75;5075301;28;20025;-68
2022/07/01 03:02:43;;;;;;;1.10;1.00;;;;;;;23.63;38.09;101193.72;5075221;28;20035;-68
2022/07/01 03:05:10;;;;;;;1.58;1.48;;;;;;;23.65;38.13;101193.47;5075499;28;20024;-68
2022/07/01 03:07:35;;;;;;;1.30;1.20;;;;;;;23.68;38.30;101200.28;5074848;28;20486;-68
2022/07/01 03:10:02;;;;;;;1.30;1.20;;;;;;;23.70;38.30;101198.13;5073881;28;20021;-68
2022/07/01 03:12:28;;;;;;;1.20;1.10;;;;;;;23.70;38.22;101196.25;5074847;28;20512;-68
2022/07/01 03:14:56;;;;;;;1.40;1.30;;;;;;;23.74;38.31;101194.63;5075032;28;20049;-68
2022/07/01 03:17:23;;;;;;;1.35;1.25;;;;;;;23.76;38.16;101191.66;5074963;28;20039;-68
2022/07/01 03:19:48;;;;;;;1.65;1.50;;;;;;;23.77;38.25;101185.94;5074946;28;20028;-68
2022/07/01 03:22:14;;;;;;;1.30;1.20;;;;;;;23.78;38.51;101195.78;5074931;28;20025;-68
2022/07/01 03:24:39;;;;;;;1.40;1.30;;;;;;;23.78;38.63;101194.94;5073189;28;20487;-68
2022/07/01 03:27:05;;;;;;;1.40;1.30;;;;;;;23.83;38.39;101196.94;5074463;28;20074;-68
2022/07/01 03:29:30;;;;;;;1.50;1.35;;;;;;;23.85;38.64;101201.06;5074497;28;20024;-71
2022/07/01 03:31:55;;;;;;;1.52;1.10;;;;;;;23.86;38.88;101196.44;5074769;28;20031;-68
2022/07/01 03:34:21;;;;;;;1.30;1.20;;;;;;;23.88;38.50;101197.81;5075007;28;20024;-69
2022/07/01 03:36:46;;;;;;;1.20;1.10;;;;;;;23.90;38.79;101197.56;5074224;28;20423;-69
2022/07/01 03:39:12;;;;;;;1.10;1.10;;;;;;;23.92;38.60;101200.84;5074263;28;20031;-69
2022/07/01 03:41:37;;;;;;;1.15;1.05;;;;;;;23.94;38.62;101202.25;5074291;28;20035;-69
2022/07/01 03:44:03;;;;;;;1.50;1.40;;;;;;;23.93;38.93;101199.78;5059806;28;20029;-68
2022/07/01 03:46:31;;;;;;;1.20;1.10;;;;;;;24.00;38.90;101214.06;5054573;28;20523;-69
2022/07/01 03:48:57;;;;;;;1.10;1.10;;;;;;;24.00;38.81;101205.84;5054267;28;20099;-69
2022/07/01 03:51:23;;;;;;;1.25;1.13;;;;;;;24.02;38.99;101209.16;5054214;28;20029;-69
2022/07/01 03:56:33;;;;;;;1.30;1.20;;;;;;;24.04;38.94;101208.91;5054220;28;20395;-69
2022/07/01 03:58:58;;;;;;;1.02;1.02;;;;;;;24.05;39.13;101213.28;5054506;28;20030;-69
2022/07/01 04:01:24;;;;;;;1.20;1.10;;;;;;;24.08;39.16;101210.88;5054234;28;20048;-69
2022/07/01 04:03:49;;;;;;;1.30;1.20;;;;;;;24.11;39.00;101224.00;5054548;28;20055;-69
2022/07/01 04:06:15;;;;;;;1.00;1.00;;;;;;;24.14;39.07;101218.00;5054091;28;20027;-69
2022/07/01 04:08:40;;;;;;;1.40;1.30;;;;;;;24.14;38.88;101218.00;5054013;28;20079;-70
2022/07/01 04:11:08;;;;;;;1.20;1.10;;;;;;;24.16;39.05;101224.06;5053638;28;20364;-69
2022/07/01 04:13:34;;;;;;;1.70;1.60;;;;;;;24.16;39.30;101220.47;5053555;28;20029;-69
2022/07/01 04:16:00;;;;;;;1.30;1.20;;;;;;;24.19;38.75;101226.25;5052438;28;20025;-69
2022/07/01 04:18:26;;;;;;;1.23;1.13;;;;;;;24.16;39.24;101217.75;5053703;28;20021;-69
2022/07/01 04:23:35;;;;;;;1.40;1.30;;;;;;;24.21;39.23;101220.53;5054103;28;20032;-68
2022/07/01 04:26:01;;;;;;;1.20;1.10;;;;;;;24.22;39.12;101221.38;5053175;28;20455;-70
2022/07/01 04:28:27;;;;;;;2.55;1.45;;;;;;;24.24;39.22;101221.94;5053268;28;20025;-70
2022/07/01 04:30:52;;;;;;;3.47;1.50;;;;;;;24.25;39.15;101210.75;5053702;28;20040;-69
2022/07/01 04:33:18;;;;;;;1.60;1.50;;;;;;;24.26;38.92;101206.91;5053521;28;20025;-69
2022/07/01 04:35:43;;;;;;;1.52;1.42;;;;;;;24.26;39.09;101211.56;5053488;28;20371;-70
2022/07/01 04:38:09;;;;;;;1.38;1.27;;;;;;;24.27;38.89;101207.75;5053161;28;20472;-70
2022/07/01 04:40:34;;;;;;;1.52;1.27;;;;;;;24.29;39.29;101211.88;5053203;28;20040;-69
2022/07/01 04:43:00;;;;;;;1.20;1.10;;;;;;;24.32;39.18;101210.53;5058269;28;20047;-69
2022/07/01 04:45:25;;;;;;;1.40;1.30;;;;;;;24.31;39.21;101209.69;5073342;28;20463;-68
2022/07/01 04:47:50;;;;;;;1.40;1.30;;;;;;;24.33;39.44;101206.72;5073262;28;20396;-68
2022/07/01 04:50:16;;;;;;;1.30;1.20;;;;;;;24.33;39.39;101214.91;5073002;28;20364;-68
2022/07/01 04:52:41;;;;;;;1.50;1.40;;;;;;;24.34;39.62;101211.09;5072944;28;20039;-68
2022/07/01 04:55:07;;;;;;;1.45;1.35;;;;;;;24.32;39.77;101210.53;5072871;28;20025;-70
2022/07/01 04:57:33;;;;;;;1.23;1.13;;;;;;;24.31;39.75;101215.16;5073041;28;20111;-70
2022/07/01 04:59:59;;;;;;;1.30;1.20;;;;;;;24.31;39.81;101214.34;5073126;28;20378;-69
2022/07/01 05:02:24;;;;;;;1.70;1.60;;;;;;;24.31;39.45;101219.81;5073114;28;20493;-69
2022/07/01 05:04:50;;;;;;;2.00;1.20;;;;;;;24.27;39.65;101208.59;5072680;28;20386;-69
2022/07/01 05:07:31;;;;;;;1.80;1.45;;;;;;;24.26;39.61;101215.13;5073245;28;20024;-68
2022/07/01 05:09:56;;;;;;;1.90;1.25;;;;;;;24.32;39.62;101226.94;5072827;28;20032;-68
2022/07/01 05:12:22;;;;;;;1.95;1.50;;;;;;;24.36;39.49;101217.13;5072885;28;20028;-69
2022/07/01 05:14:49;;;;;;;1.48;1.30;;;;;;;24.36;39.68;101217.13;5072871;28;20044;-69
2022/07/01 05:17:14;;;;;;;2.38;1.30;;;;;;;24.35;39.49;101215.47;5072758;28;20029;-68
2022/07/01 05:22:24;;;;;;;1.40;1.23;;;;;;;24.34;39.70;101213.84;5072873;28;20512;-69
2022/07/01 05:24:49;;;;;;;1.60;1.40;;;;;;;24.37;40.16;101218.78;5072797;28;20044;-69
2022/07/01 05:27:14;;;;;;;1.50;1.30;;;;;;;24.33;40.05;101207.53;5072741;28;20123;-69
2022/07/01 05:29:40;;;;;;;1.30;1.20;;;;;;;24.35;39.81;101208.13;5072830;28;20090;-69
2022/07/01 05:32:06;;;;;;;1.42;1.33;;;;;;;24.33;40.00;101202.06;5073402;28;20032;-69
2022/07/01 05:34:32;;;;;;;1.73;1.27;;;;;;;24.29;40.05;101209.13;5073341;28;20047;-69
2022/07/01 05:36:58;;;;;;;1.50;1.40;;;;;;;24.28;40.21;101212.13;5072781;28;20024;-68
2022/07/01 05:39:23;;;;;;;3.17;1.58;;;;;;;24.28;40.26;101207.47;5071327;28;20051;-69
2022/07/01 05:41:49;;;;;;;5.28;3.10;;;;;;;24.30;40.35;101219.00;5072241;28;20025;-69
2022/07/01 05:44:14;;;;;;;3.70;2.40;;;;;;;24.30;40.15;101215.41;5058755;28;20025;-68
2022/07/01 05:46:40;;;;;;;2.80;2.03;;;;;;;24.35;40.42;101215.47;5053528;28;20102;-68
2022/07/01 05:49:05;;;;;;;2.35;1.73;;;;;;;24.34;40.35;101213.84;5054425;28;20025;-68
2022/07/01 05:51:31;;;;;;;1.80;1.55;;;;;;;24.26;40.55;101206.09;5055018;28;20021;-69
2022/07/01 05:53:56;;;;;;;1.98;1.60;;;;;;;24.25;40.77;101207.19;5054535;28;20033;-69
2022/07/01 05:56:22;;;;;;;2.55;2.03;;;;;;;24.29;40.74;101200.94;5052782;28;20029;-69
2022/07/01 05:58:48;;;;;;;3.50;2.05;;;;;;;24.31;40.69;101208.88;5053668;28;20017;-69
2022/07/01 06:01:13;;;;;;;2.10;1.67;;;;;;;24.32;41.00;101211.34;5054394;28;20041;-69
2022/07/01 06:03:39;;;;;;;2.42;1.50;;;;;;;24.33;40.52;101212.16;5055901;28;20406;-69
2022/07/01 06:06:04;;;;;;;2.60;1.70;;;;;;;24.34;40.91;101211.09;5056204;28;20064;-68
2022/07/01 06:08:30;;;;;;;2.25;1.70;;;;;;;24.40;40.64;101201.03;5056128;28;20418;-69
2022/07/01 06:10:55;;;;;;;1.80;1.42;;;;;;;24.40;40.51;101207.31;5055655;28;20529;-68
2022/07/01 06:13:21;;;;;;;2.00;1.38;;;;;;;24.38;41.05;101204.03;5056499;28;20029;-70
2022/07/01 06:15:46;;;;;;;2.05;1.42;;;;;;;24.44;40.58;101211.19;5055787;28;20025;-69
2022/07/01 06:18:12;;;;;;;1.98;1.70;;;;;;;24.45;40.92;101210.09;5055566;28;20025;-70
2022/07/01 06:20:37;;;;;;;1.60;1.40;;;;;;;24.46;40.94;101211.75;5055883;28;20078;-68
2022/07/01 06:23:03;;;;;;;2.70;1.50;;;;;;;24.46;40.68;101206.28;5056129;28;20017;-71
2022/07/01 06:25:28;;;;;;;1.60;1.50;;;;;;;24.52;40.75;101210.69;5053799;28;20515;-69
2022/07/01 06:27:54;;;;;;;1.60;1.50;;;;;;;24.48;40.96;101206.84;5055491;28;20368;-68
2022/07/01 06:30:19;;;;;;;1.60;1.48;;;;;;;24.45;41.08;101215.56;5055751;28;20033;-68
2022/07/01 06:32:45;;;;;;;1.30;1.20;;;;;;;24.50;41.31;101214.78;5055298;28;20040;-70
2022/07/01 06:35:10;;;;;;;1.50;1.25;;;;;;;24.41;41.41;101213.63;5054926;28;20028;-68
2022/07/01 06:37:36;;;;;;;1.70;1.40;;;;;;;24.54;41.19;101216.78;5055665;28;20029;-68
2022/07/01 06:40:03;;;;;;;1.73;1.45;;;;;;;24.52;41.24;101216.16;5055773;28;20056;-70
2022/07/01 06:42:28;;;;;;;1.48;1.30;;;;;;;24.51;41.03;101206.31;5054073;28;20028;-68
2022/07/01 06:44:54;;;;;;;3.88;2.33;;;;;;;24.55;41.37;101218.41;5073481;28;20032;-69
2022/07/01 06:47:19;;;;;;;3.13;2.33;;;;;;;24.55;41.09;101215.66;5074943;28;20028;-70
2022/07/01 06:49:45;;;;;;;3.20;2.20;;;;;;;24.58;41.42;101217.06;5075273;28;20043;-70
2022/07/01 06:52:10;;;;;;;6.93;3.55;;;;;;;24.46;41.93;101210.94;5075530;28;20020;-71
2022/07/01 06:54:37;;;;;;;22.30;8.15;;;;;;;24.52;41.65;101210.69;5075187;28;20447;-70
2022/07/01 06:57:04;;;;;;;19.23;6.28;;;;;;;24.48;41.91;101206.84;5075036;28;20028;-69
2022/07/01 06:59:30;;;;;;;16.42;6.38;;;;;;;24.52;41.81;101210.69;5057637;28;20025;-68
2022/07/01 07:01:55;;;;;;;13.82;6.03;;;;;;;24.55;41.71;101215.66;5074851;28;20471;-67
2022/07/01 07:04:20;;;;;;;6.32;3.35;;;;;;;24.49;42.02;101205.75;5074753;28;20024;-67
2022/07/01 07:06:46;;;;;;;6.68;3.55;;;;;;;24.54;41.86;101203.09;5074795;28;20086;-67
2022/07/01 07:09:11;;;;;;;5.70;3.20;;;;;;;24.57;42.17;101196.28;5074892;28;20090;-66
2022/07/01 07:11:37;;;;;;;8.10;2.78;;;;;;;24.50;42.72;101185.53;5073858;28;20078;-66
2022/07/01 07:14:05;;;;;;;10.18;3.97;;;;;;;24.54;42.22;101186.72;5073976;28;20021;-66
2022/07/01 07:16:32;;;;;;;7.45;3.78;;;;;;;24.54;41.92;101172.19;5074657;28;20043;-66
2022/07/01 07:18:57;;;;;;;6.47;2.45;;;;;;;24.52;42.16;101171.63;5074727;28;20111;-66
2022/07/01 07:21:22;;;;;;;7.00;2.50;;;;;;;24.60;42.17;101175.81;5073082;28;20024;-66
2022/07/01 07:23:48;;;;;;;4.07;2.30;;;;;;;24.46;42.67;101162.56;5074612;28;20028;-67
2022/07/01 07:26:13;;;;;;;89.13;30.40;;;;;;;24.12;43.68;101157.38;5074396;28;20488;-67
2022/07/01 07:28:39;;;;;;;74.97;32.47;;;;;;;24.07;43.72;101153.78;5074482;28;20020;-68
2022/07/01 07:31:04;;;;;;;17.08;7.45;;;;;;;23.93;44.11;101164.28;5073840;28;20033;-69
2022/07/01 07:33:30;;;;;;;8.68;4.25;;;;;;;24.03;43.97;101158.13;5074109;28;20395;-67
2022/07/01 07:35:55;;;;;;;79.68;26.80;;;;;;;23.99;44.24;101157.78;5074431;28;20024;-66
2022/07/01 07:38:21;;;;;;;39.58;13.98;;;;;;;23.98;44.03;101148.78;5074011;28;20440;-68
2022/07/01 07:40:47;;;;;;;17.20;7.00;;;;;;;24.30;42.94;101147.13;5074893;28;20040;-67
2022/07/01 07:43:13;;;;;;;7.90;3.90;;;;;;;24.43;42.83;101141.22;5070978;28;20025;-68
2022/07/01 07:45:38;;;;;;;12.02;4.32;;;;;;;24.45;42.73;101139.06;5053853;28;20028;-69
2022/07/01 07:48:05;;;;;;;6.28;3.53;;;;;;;24.49;42.69;101137.47;5053717;28;20025;-67
2022/07/01 07:50:31;;;;;;;7.55;3.75;;;;;;;24.54;42.60;101134.78;5053805;28;20096;-66
2022/07/01 07:52:56;;;;;;;5.93;3.00;;;;;;;24.49;42.44;101133.88;5054245;28;20052;-67
2022/07/01 07:55:22;;;;;;;11.13;4.47;;;;;;;24.60;42.19;101141.09;5054044;28;20033;-67
2022/07/01 07:57:47;;;;;;;19.10;6.70;;;;;;;24.58;42.53;101143.28;5053793;28;20025;-69
2022/07/01 08:00:13;;;;;;;18.35;7.35;;;;;;;24.61;42.30;101147.38;5053916;28;20021;-69
2022/07/01 08:02:39;;;;;;;17.38;7.72;;;;;;;24.70;42.02;101146.63;5054318;28;20021;-67
2022/07/01 08:05:05;;;;;;;14.93;6.07;;;;;;;24.66;42.08;101144.69;5056504;28;20112;-67
2022/07/01 08:07:38;;;;;;;21.05;8.90;;;;;;;24.61;42.26;101145.50;5053877;28;20364;-67
2022/07/01 08:10:05;;;;;;;20.85;7.43;;;;;;;24.65;42.15;101149.34;5053878;28;20071;-67
2022/07/01 08:12:30;;;;;;;10.20;5.00;;;;;;;24.68;41.87;101153.44;5054024;28;20024;-68
2022/07/01 08:14:55;;;;;;;7.88;4.35;;;;;;;24.76;41.69;101160.34;5052100;28;20043;-68
2022/07/01 08:17:21;;;;;;;6.65;3.75;;;;;;;24.68;42.07;101161.63;5053423;28;20025;-67
2022/07/01 08:19:46;;;;;;;7.65;3.70;;;;;;;24.68;41.83;101157.03;5052327;28;20075;-67
2022/07/01 08:22:12;;;;;;;9.93;4.60;;;;;;;24.70;41.82;101167.69;5054466;28;20044;-68
2022/07/01 08:24:37;;;;;;;7.80;3.97;;;;;;;24.73;41.94;101164.41;5054799;28;20044;-67
2022/07/01 08:27:03;;;;;;;11.60;4.93;;;;;;;24.76;41.73;101169.34;5053906;28;20416;-67
2022/07/01 08:29:28;;;;;;;16.50;6.88;;;;;;;24.78;41.46;101161.72;5054490;28;20062;-66
2022/07/01 08:31:54;;;;;;;12.80;5.70;;;;;;;24.74;41.27;101161.41;5054054;28;20332;-66
2022/07/01 08:34:39;;;;;;;7.45;3.63;;;;;;;24.74;41.35;101157.88;5053841;28;20025;-68
2022/07/01 08:37:05;;;;;;;6.72;3.20;;;;;;;24.79;41.43;101149.69;5053407;28;20111;-67
2022/07/01 08:39:30;;;;;;;5.47;2.80;;;;;;;24.74;41.15;101153.22;5053464;28;20091;-67
2022/07/01 08:41:56;;;;;;;4.45;2.47;;;;;;;24.86;41.08;101155.75;5053444;28;20089;-68
2022/07/01 08:44:22;;;;;;;3.78;2.50;;;;;;;24.78;40.95;101161.72;5064560;28;20528;-68
2022/07/01 08:46:47;;;;;;;4.40;2.40;;;;;;;24.81;41.10;101169.38;5073033;28;20031;-68
2022/07/01 08:49:13;;;;;;;4.75;2.33;;;;;;;24.80;40.69;101167.75;5073383;28;20020;-67
2022/07/01 08:51:38;;;;;;;2.65;2.10;;;;;;;24.87;40.85;101162.88;5072971;28;20021;-66
2022/07/01 08:54:04;;;;;;;4.07;2.22;;;;;;;24.84;40.60;101163.41;5073194;28;20024;-69
2022/07/01 08:56:41;;;;;;;2.75;2.00;;;;;;;24.83;40.59;101167.19;5073237;28;20099;-67
2022/07/01 08:59:09;;;;;;;3.05;1.80;;;;;;;24.86;40.45;101172.16;5073210;28;20021;-67
2022/07/01 09:01:34;;;;;;;2.75;1.80;;;;;;;24.82;40.77;101162.84;5073245;28;20024;-68
2022/07/01 09:04:19;;;;;;;2.00;1.60;;;;;;;24.83;40.39;101158.19;5073225;28;20421;-67
2022/07/01 09:06:44;;;;;;;3.05;1.70;;;;;;;24.81;40.57;101155.72;5073249;28;20095;-68
2022/07/01 09:09:15;;;;;;;2.28;1.75;;;;;;;24.87;40.13;101151.94;5073417;28;20424;-67
2022/07/01 09:11:53;;;;;;;2.00;1.63;;;;;;;24.77;40.44;101157.34;5074060;28;20052;-69
2022/07/01 09:14:19;;;;;;;2.22;1.63;;;;;;;24.81;40.42;101147.50;5074283;28;20025;-68
2022/07/01 09:16:45;;;;;;;1.80;1.70;;;;;;;24.81;40.44;101142.03;5073222;28;20025;-68
2022/07/01 09:19:12;;;;;;;1.85;1.67;;;;;;;24.77;40.05;101148.28;5073760;28;20486;-67
2022/07/01 09:21:37;;;;;;;1.58;1.48;;;;;;;24.81;40.08;101147.50;5074362;28;20016;-68
2022/07/01 09:24:04;;;;;;;1.60;1.50;;;;;;;24.80;40.30;101142.31;5073440;28;20051;-68
2022/07/01 09:26:30;;;;;;;1.63;1.50;;;;;;;24.83;40.00;101139.06;5073922;28;20044;-67
2022/07/01 09:28:56;;;;;;;2.08;1.85;;;;;;;24.82;40.28;101135.50;5073671;28;20490;-68
2022/07/01 09:31:23;;;;;;;3.97;2.10;;;;;;;24.81;40.06;101127.56;5073161;28;20029;-68
2022/07/01 09:34:08;;;;;;;7.18;3.30;;;;;;;24.87;40.14;101129.22;5072300;28;20033;-68
2022/07/01 09:36:39;;;;;;;4.38;2.70;;;;;;;24.82;40.21;101131.94;5076189;28;20154;-68
2022/07/01 09:39:04;;;;;;;8.18;3.38;;;;;;;24.85;39.91;101140.44;5077927;28;20104;-68
2022/07/01 09:41:35;;;;;;;6.53;3.40;;;;;;;24.81;40.02;101133.84;5077069;28;20040;-68
2022/07/01 09:44:05;;;;;;;5.95;3.55;;;;;;;24.85;40.32;101137.72;5069377;28;20032;-68
2022/07/01 09:46:31;;;;;;;8.65;3.72;;;;;;;24.82;40.33;101131.94;5056233;28;20033;-68
2022/07/01 09:48:56;;;;;;;10.80;6.20;;;;;;;24.86;40.34;101144.81;5056496;28;20021;-68
2022/07/01 09:51:21;;;;;;;18.88;8.60;;;;;;;24.96;40.18;101151.41;5056040;28;20205;-68
2022/07/01 09:53:47;;;;;;;9.75;5.55;;;;;;;24.90;40.15;101156.03;5056290;28;20041;-69
2022/07/01 09:56:12;;;;;;;12.30;5.35;;;;;;;24.91;40.06;101158.50;5056283;28;20079;-68
2022/07/01 09:58:38;;;;;;;10.43;5.43;;;;;;;24.93;40.00;101156.31;5056481;28;20025;-69
2022/07/01 10:01:04;;;;;;;16.10;7.05;;;;;;;24.95;40.07;101147.03;5056852;28;20355;-69
2022/07/01 10:03:31;;;;;;;18.88;8.65;;;;;;;24.96;40.05;101146.78;5055073;28;20021;-68
2022/07/01 10:06:07;;;;;;;18.90;8.00;;;;;;;24.92;40.43;101145.66;5056071;28;20032;-68
2022/07/01 10:08:44;;;;;;;15.63;7.63;;;;;;;24.97;40.47;101147.59;5055119;28;20546;-69
2022/07/01 10:11:25;;;;;;;21.58;8.68;;;;;;;24.96;40.56;101148.69;5055830;28;20025;-69
2022/07/01 10:13:50;;;;;;;27.70;10.73;;;;;;;24.99;40.10;101145.41;5055813;28;20060;-69
2022/07/01 10:16:16;;;;;;;24.30;10.27;;;;;;;24.99;40.34;101145.41;5054737;28;20052;-69
2022/07/01 10:18:42;;;;;;;14.75;7.38;;;;;;;25.01;40.24;101151.44;5055974;28;20029;-68
2022/07/01 10:21:07;;;;;;;15.00;6.65;;;;;;;25.01;40.18;101149.53;5038242;28;20034;-68
2022/07/01 10:23:40;;;;;;;17.27;8.20;;;;;;;25.00;40.21;101144.34;5056484;28;20099;-69
2022/07/01 10:26:07;;;;;;;13.30;6.35;;;;;;;24.98;40.35;101141.06;5056078;28;20056;-68
2022/07/01 10:28:46;;;;;;;11.70;6.07;;;;;;;25.02;40.28;101148.44;5054875;28;20036;-68
2022/07/01 10:31:16;;;;;;;12.10;5.60;;;;;;;25.06;40.09;101137.78;5056133;28;20436;-67
2022/07/01 10:33:53;;;;;;;12.02;5.30;;;;;;;25.09;40.16;101137.25;5054611;28;20087;-66
2022/07/01 10:36:22;;;;;;;10.07;5.30;;;;;;;25.03;40.11;101138.34;5055719;28;20104;-69
2022/07/01 10:39:13;;;;;;;15.55;6.93;;;;;;;25.08;39.91;101135.63;5055701;28;20111;-67
2022/07/01 10:41:41;;;;;;;13.70;5.85;;;;;;;25.09;40.05;101140.00;5055598;28;20033;-67
2022/07/01 10:44:10;;;;;;;13.50;5.88;;;;;;;25.14;39.88;101145.50;5062885;28;20526;-67
2022/07/01 10:46:45;;;;;;;10.85;4.55;;;;;;;25.04;40.03;101143.56;5075226;28;20024;-67
2022/07/01 10:49:21;;;;;;;8.38;4.57;;;;;;;25.06;39.94;101129.59;5076142;28;20040;-67
2022/07/01 10:51:51;;;;;;;9.13;4.55;;;;;;;25.03;40.26;101135.59;5074025;28;20051;-70
2022/07/01 10:54:38;;;;;;;10.35;3.92;;;;;;;25.06;40.20;101126.84;5075336;28;20024;-67
2022/07/01 10:57:15;;;;;;;6.95;3.58;;;;;;;25.08;39.80;101130.16;5033113;28;20065;-67
2022/07/01 10:59:40;;;;;;;6.10;3.67;;;;;;;25.03;40.03;101128.22;5033341;28;20041;-68
2022/07/01 11:02:12;;;;;;;8.15;3.70;;;;;;;25.07;39.69;101139.44;5033021;28;20565;-68
2022/07/01 11:04:38;;;;;;;5.47;3.15;;;;;;;25.06;39.89;101137.78;5032990;28;20041;-67
2022/07/01 11:07:04;;;;;;;5.68;3.03;;;;;;;25.04;39.66;101138.09;5032888;28;20057;-68
2022/07/01 11:09:29;;;;;;;3.78;2.80;;;;;;;25.08;39.53;101124.69;5032951;28;20116;-68
2022/07/01 11:11:54;;;;;;;4.03;2.88;;;;;;;25.13;39.16;101138.38;5032653;28;20088;-68
2022/07/01 11:14:20;;;;;;;5.57;3.33;;;;;;;25.15;38.97;101129.91;5032643;28;20037;-68
2022/07/01 11:16:45;;;;;;;4.30;2.95;;;;;;;25.10;39.19;101134.25;5032630;28;20033;-67
2022/07/01 11:19:11;;;;;;;4.47;2.70;;;;;;;25.05;39.25;101136.16;5032512;28;20108;-69
2022/07/01 11:21:36;;;;;;;4.18;2.70;;;;;;;25.08;38.86;101130.16;5032442;28;20033;-68
2022/07/01 11:24:02;;;;;;;3.55;2.45;;;;;;;25.06;38.77;101121.38;5032272;28;20029;-68
2022/07/01 11:26:27;;;;;;;3.13;2.00;;;;;;;25.06;38.72;101118.66;5032435;28;20033;-68
2022/07/01 11:28:53;;;;;;;3.15;2.17;;;;;;;25.07;38.80;101120.31;5032318;28;20072;-68